Time;durP1;ratioP1;P1;durP2;ratioP2;P2;SDS_P1;SDS_P2;PMS_P1;PMS_P2;Temp;Humidity;BMP_temperature;BMP_pressure;BME280_temperature;BME280_humidity;BME280_pressure;Samples;Min_cycle;Max_cycle;Signal;HPM_P1;HPM_P2
2023/02/17 00:01:38;;;;;;;54.03;31.43;;;4.20;99.90;;;4.06;74.89;100533.66;5067656;28;20206;-68
2023/02/17 00:04:06;;;;;;;59.00;32.27;;;4.20;99.90;;;4.06;75.02;100537.06;5069819;28;20197;-68
2023/02/17 00:06:36;;;;;;;56.70;31.50;;;4.20;99.90;;;4.08;74.93;100532.84;5073130;28;20194;-68
2023/02/17 00:09:04;;;;;;;56.57;31.90;;;4.20;99.90;;;4.09;74.89;100539.69;5068404;28;20202;-67
2023/02/17 00:11:33;;;;;;;58.23;31.47;;;4.20;99.90;;;4.07;75.21;100535.38;5067297;28;20202;-66
2023/02/17 00:14:01;;;;;;;58.77;34.43;;;4.20;99.90;;;4.07;75.04;100526.03;5067895;28;20251;-67
2023/02/17 00:16:30;;;;;;;60.07;31.97;;;4.20;99.90;;;4.10;75.04;100527.78;5062531;28;20210;-68
2023/02/17 00:19:01;;;;;;;59.47;32.87;;;4.20;99.90;;;4.09;75.65;100526.06;5066013;28;20236;-66
2023/02/17 00:21:31;;;;;;;61.53;33.60;;;4.30;99.90;;;4.08;75.07;100524.34;5069902;28;20259;-68
2023/02/17 00:24:01;;;;;;;58.57;33.70;;;4.20;99.90;;;4.11;75.47;100524.41;5066289;28;20198;-66
2023/02/17 00:26:30;;;;;;;56.23;31.47;;;4.30;99.90;;;4.15;74.83;100527.88;5063223;28;20222;-68
2023/02/17 00:28:58;;;;;;;61.63;32.90;;;4.30;99.90;;;4.14;74.93;100524.47;5063658;28;20229;-69
2023/02/17 00:31:27;;;;;;;57.10;32.67;;;4.30;99.90;;;4.16;75.39;100530.50;5064675;28;20571;-67
2023/02/17 00:33:56;;;;;;;52.13;31.47;;;4.30;99.90;;;4.17;75.16;100521.16;5061095;28;20233;-69
2023/02/17 00:36:26;;;;;;;59.03;30.67;;;4.30;99.90;;;4.16;74.92;100521.94;5063581;28;20202;-68
2023/02/17 00:38:56;;;;;;;55.67;32.57;;;4.30;99.90;;;4.18;74.80;100517.75;5062004;28;20206;-68
2023/02/17 00:41:28;;;;;;;54.67;32.67;;;4.30;99.90;;;4.20;74.82;100516.97;5061282;28;20236;-69
2023/02/17 00:43:56;;;;;;;55.17;31.93;;;4.40;99.90;;;4.20;74.71;100514.44;5055002;28;20206;-68
2023/02/17 00:46:26;;;;;;;58.60;30.73;;;4.30;99.90;;;4.20;74.98;100506.78;5069852;28;20201;-65
2023/02/17 00:48:55;;;;;;;56.23;31.83;;;4.40;99.90;;;4.23;74.81;100511.06;5060636;28;20210;-67
2023/02/17 00:51:24;;;;;;;53.13;31.60;;;4.40;99.90;;;4.22;74.60;100510.19;5064261;28;20205;-68
2023/02/17 00:53:52;;;;;;;58.10;33.30;;;4.40;99.90;;;4.25;74.16;100512.81;5063108;28;20206;-68
2023/02/17 00:56:21;;;;;;;55.10;31.03;;;4.40;99.90;;;4.26;74.22;100506.03;5060622;28;20210;-68
2023/02/17 00:58:51;;;;;;;55.53;32.07;;;4.40;99.90;;;4.25;74.68;100500.06;5061208;28;20221;-68
2023/02/17 01:01:19;;;;;;;56.17;32.03;;;4.40;99.90;;;4.26;74.68;100506.88;5055981;28;20600;-67
2023/02/17 01:03:48;;;;;;;60.80;32.43;;;4.40;99.90;;;4.28;74.89;100500.13;5055827;28;20564;-68
2023/02/17 01:06:23;;;;;;;57.33;30.10;;;4.40;99.90;;;4.26;74.76;100494.13;5055637;28;20210;-68
2023/02/17 01:08:52;;;;;;;53.17;31.60;;;4.40;99.90;;;4.28;74.43;100484.84;5054854;28;20230;-68
2023/02/17 01:11:23;;;;;;;57.20;31.90;;;4.40;99.90;;;4.30;74.61;100480.59;5055629;28;20303;-69
2023/02/17 01:13:54;;;;;;;51.03;31.10;;;4.40;99.90;;;4.31;74.34;100491.69;5058189;28;20216;-68
2023/02/17 01:16:28;;;;;;;52.63;31.03;;;4.40;99.90;;;4.35;74.18;100486.69;5056609;28;20194;-70
2023/02/17 01:18:56;;;;;;;52.30;30.37;;;4.40;99.90;;;4.35;73.88;100484.13;5057101;28;20658;-67
2023/02/17 01:21:28;;;;;;;59.37;33.03;;;4.40;99.90;;;4.33;74.14;100475.56;5055159;28;20225;-69
2023/02/17 01:24:02;;;;;;;53.40;30.67;;;4.60;99.90;;;4.34;73.91;100478.97;5053314;28;20206;-70
2023/02/17 01:26:33;;;;;;;60.73;31.97;;;4.50;99.90;;;4.36;74.50;100477.34;5055726;28;20264;-69
2023/02/17 01:29:04;;;;;;;55.07;30.87;;;4.50;99.90;;;4.36;74.41;100470.53;5055575;28;20272;-67
2023/02/17 01:31:33;;;;;;;54.83;31.30;;;4.50;99.90;;;4.41;74.01;100474.88;5061844;28;20248;-69
2023/02/17 01:34:04;;;;;;;53.83;30.67;;;4.50;99.90;;;4.40;74.69;100460.41;5053970;28;20233;-69
2023/02/17 01:36:32;;;;;;;55.70;31.80;;;4.50;99.90;;;4.43;73.86;100457.91;5058041;28;20206;-69
2023/02/17 01:39:01;;;;;;;55.37;31.27;;;4.50;99.90;;;4.44;74.01;100455.38;5053755;28;20627;-69
2023/02/17 01:41:29;;;;;;;50.90;29.87;;;4.60;99.90;;;4.46;74.07;100458.84;5050928;28;20234;-66
2023/02/17 01:44:14;;;;;;;49.73;30.07;;;4.60;99.90;;;4.44;74.13;100445.19;5049914;28;20252;-64
2023/02/17 01:46:45;;;;;;;52.50;31.10;;;4.60;99.90;;;4.46;74.22;100450.34;5049616;28;20493;-67
2023/02/17 01:49:25;;;;;;;56.83;31.57;;;4.60;99.90;;;4.47;73.83;100447.78;5048194;28;20635;-66
2023/02/17 01:52:02;;;;;;;58.50;30.93;;;4.60;99.90;;;4.48;74.16;100459.72;5048484;28;20280;-64
2023/02/17 01:54:37;;;;;;;51.67;29.37;;;4.60;99.90;;;4.48;74.05;100458.84;5048980;28;20586;-63
2023/02/17 01:57:06;;;;;;;52.17;29.37;;;4.60;99.90;;;4.49;74.31;100452.91;5049759;28;20259;-64
2023/02/17 01:59:36;;;;;;;55.57;29.17;;;4.60;99.90;;;4.50;74.43;100449.56;5050537;28;20224;-65
2023/02/17 02:02:06;;;;;;;55.53;29.40;;;4.60;99.90;;;4.52;74.23;100452.97;5048858;28;20292;-64
2023/02/17 02:04:40;;;;;;;56.30;31.03;;;4.60;99.90;;;4.50;74.48;100436.81;5047627;28;20638;-64
2023/02/17 02:07:20;;;;;;;56.93;31.27;;;4.60;99.90;;;4.52;73.76;100445.31;5051157;28;20190;-65
2023/02/17 02:09:53;;;;;;;51.33;28.43;;;4.70;99.90;;;4.53;74.11;100447.06;5049171;28;20732;-64
2023/02/17 02:12:25;;;;;;;54.63;31.07;;;4.60;99.90;;;4.52;73.85;100440.22;5047632;28;20206;-64
2023/02/17 02:14:59;;;;;;;56.03;31.57;;;4.70;99.90;;;4.57;73.72;100438.63;5050202;28;20198;-67
2023/02/17 02:17:36;;;;;;;53.00;30.07;;;4.70;99.90;;;4.56;73.99;100442.00;5048541;28;20205;-62
2023/02/17 02:20:32;;;;;;;52.13;30.83;;;4.70;99.90;;;4.58;74.00;100433.56;5050336;28;20700;-64
2023/02/17 02:23:43;;;;;;;52.73;28.10;;;4.70;99.90;;;4.60;73.97;100431.00;5047653;28;20214;-65
2023/02/17 02:26:51;;;;;;;51.60;28.87;;;4.70;99.90;;;4.64;73.81;100434.47;5049022;28;20248;-66
2023/02/17 02:30:09;;;;;;;50.53;28.70;;;4.70;99.90;;;4.64;73.07;100422.63;5002039;28;20229;-65
2023/02/17 02:32:57;;;;;;;53.47;29.83;;;4.80;99.90;;;4.65;73.28;100429.44;5050093;28;20660;-66
2023/02/17 02:35:32;;;;;;;52.77;30.20;;;4.80;99.90;;;4.65;73.35;100434.53;5051743;28;20206;-66
2023/02/17 02:38:06;;;;;;;51.00;29.23;;;4.80;99.90;;;4.64;73.93;100432.81;5054209;28;20626;-63
2023/02/17 02:40:42;;;;;;;54.50;29.67;;;4.80;99.90;;;4.63;73.93;100428.53;5052985;28;20236;-65
2023/02/17 02:43:11;;;;;;;54.43;31.13;;;4.80;99.90;;;4.63;73.83;100428.53;5052580;28;20205;-64
2023/02/17 02:45:40;;;;;;;49.10;28.67;;;4.80;99.90;;;4.62;73.96;100424.25;5051780;28;20205;-65
2023/02/17 02:48:10;;;;;;;52.37;30.10;;;4.80;99.90;;;4.59;73.65;100429.31;5051413;28;20288;-64
2023/02/17 02:51:10;;;;;;;52.43;30.30;;;4.80;99.90;;;4.60;74.02;100420.81;5053443;28;20203;-65
2023/02/17 02:54:36;;;;;;;52.13;28.33;;;4.80;99.90;;;4.61;74.05;100414.91;5052682;28;20241;-64
2023/02/17 02:57:30;;;;;;;50.30;28.80;;;4.80;99.90;;;4.61;73.70;100417.44;5007575;28;20199;-63
2023/02/17 03:00:14;;;;;;;53.00;28.90;;;4.80;99.90;;;4.62;74.46;100408.94;5051077;28;20198;-65
2023/02/17 03:02:51;;;;;;;51.47;28.87;;;4.80;99.90;;;4.63;73.83;100410.66;5045352;28;20218;-64
2023/02/17 03:05:32;;;;;;;50.83;27.93;;;4.80;99.90;;;4.63;74.22;100408.09;5045150;28;20220;-63
2023/02/17 03:08:08;;;;;;;52.23;29.07;;;4.80;99.90;;;4.64;74.62;100420.06;5052242;28;20562;-64
2023/02/17 03:10:43;;;;;;;53.10;29.83;;;4.90;99.90;;;4.67;74.29;100416.69;5054020;28;20209;-64
2023/02/17 03:13:12;;;;;;;52.87;29.07;;;4.80;99.90;;;4.69;74.18;100418.44;5051330;28;20290;-63
2023/02/17 03:15:41;;;;;;;55.23;28.00;;;4.90;99.90;;;4.70;73.94;100407.38;5053895;28;20252;-63
2023/02/17 03:18:10;;;;;;;49.80;28.40;;;4.80;99.90;;;4.70;74.61;100407.38;5051754;28;20712;-64
2023/02/17 03:20:49;;;;;;;50.27;29.60;;;4.80;99.90;;;4.71;74.39;100413.34;5052623;28;20210;-63
2023/02/17 03:23:17;;;;;;;53.30;29.13;;;4.80;99.90;;;4.72;74.54;100410.84;5051807;28;20247;-62
2023/02/17 03:25:46;;;;;;;50.87;30.53;;;4.90;99.90;;;4.71;74.88;100421.00;5053658;28;20431;-65
2023/02/17 03:28:15;;;;;;;48.43;29.30;;;4.90;99.90;;;4.68;74.96;100416.72;5052840;28;20230;-64
2023/02/17 03:30:43;;;;;;;56.80;31.00;;;4.90;99.90;;;4.69;74.82;100421.00;5047932;28;20206;-65
2023/02/17 03:33:12;;;;;;;55.50;29.80;;;4.90;99.90;;;4.70;74.97;100412.50;5051060;28;20249;-63
2023/02/17 03:35:42;;;;;;;52.33;28.67;;;4.80;99.90;;;4.71;75.15;100410.78;5049109;28;20210;-66
2023/02/17 03:38:10;;;;;;;45.20;28.17;;;4.90;99.90;;;4.71;75.62;100415.91;5050669;28;20210;-64
2023/02/17 03:40:39;;;;;;;52.37;29.10;;;4.90;99.90;;;4.70;75.56;100414.19;5052675;28;20209;-64
2023/02/17 03:43:07;;;;;;;50.30;28.73;;;4.90;99.90;;;4.69;75.40;100408.22;5054023;28;20226;-64
2023/02/17 03:45:36;;;;;;;56.43;30.40;;;4.80;99.90;;;4.69;76.10;100410.78;5053381;28;20214;-64
2023/02/17 03:48:05;;;;;;;57.27;30.40;;;4.80;99.90;;;4.69;75.69;100417.59;5043909;28;20784;-66
2023/02/17 03:50:34;;;;;;;52.63;29.03;;;4.90;99.90;;;4.71;76.43;100423.56;5051372;28;20236;-65
2023/02/17 03:53:04;;;;;;;53.43;30.03;;;4.90;99.90;;;4.72;76.49;100422.75;5050938;28;20213;-66
2023/02/17 03:55:32;;;;;;;52.17;30.23;;;4.90;99.90;;;4.72;76.00;100422.75;5054112;28;20623;-63
2023/02/17 03:58:01;;;;;;;49.93;28.40;;;4.90;99.90;;;4.72;76.51;100420.19;5053573;28;20206;-65
2023/02/17 04:00:29;;;;;;;49.17;28.47;;;4.80;99.90;;;4.70;76.66;100409.09;5051159;28;20575;-66
2023/02/17 04:02:58;;;;;;;54.80;29.67;;;4.80;99.90;;;4.69;76.73;100403.13;5048896;28;20260;-65
2023/02/17 04:05:26;;;;;;;52.60;30.47;;;4.80;99.90;;;4.68;77.11;100396.31;5051950;28;20206;-64
2023/02/17 04:07:55;;;;;;;52.70;29.70;;;4.80;99.90;;;4.71;77.34;100388.69;5053256;28;20198;-65
2023/02/17 04:10:25;;;;;;;50.73;30.03;;;4.90;99.90;;;4.72;77.80;100389.56;5050762;28;20202;-63
2023/02/17 04:12:53;;;;;;;49.93;29.63;;;4.90;99.90;;;4.72;77.59;100389.56;5051875;28;20244;-64
2023/02/17 04:15:21;;;;;;;52.10;29.97;;;4.90;99.90;;;4.73;77.95;100387.03;5050969;28;20214;-63
2023/02/17 04:17:50;;;;;;;48.93;29.33;;;4.90;99.90;;;4.77;77.44;100393.03;5053241;28;20547;-63
2023/02/17 04:20:19;;;;;;;45.93;28.37;;;4.90;99.90;;;4.79;78.01;100392.25;5051390;28;20271;-64
2023/02/17 04:22:47;;;;;;;49.83;29.03;;;4.90;99.90;;;4.82;77.31;100407.63;5044111;28;20803;-64
2023/02/17 04:25:15;;;;;;;52.67;29.37;;;4.90;99.90;;;4.81;77.94;100403.34;5051049;28;20242;-65
2023/02/17 04:27:45;;;;;;;48.10;29.53;;;5.00;99.90;;;4.80;78.14;100403.31;5051722;28;20206;-62
2023/02/17 04:30:15;;;;;;;53.40;28.77;;;5.00;99.90;;;4.81;78.21;100390.56;5047428;28;20619;-65
2023/02/17 04:32:44;;;;;;;51.60;28.17;;;5.00;99.90;;;4.81;78.17;100398.22;5048526;28;20236;-63
2023/02/17 04:35:12;;;;;;;50.73;28.27;;;4.90;99.90;;;4.82;78.32;100393.97;5052869;28;20836;-65
2023/02/17 04:37:40;;;;;;;56.27;30.27;;;5.00;99.90;;;4.82;78.27;100389.75;5053010;28;20206;-63
2023/02/17 04:40:11;;;;;;;51.77;29.30;;;5.00;99.90;;;4.82;78.46;100374.44;5045421;28;20202;-66
2023/02/17 04:42:39;;;;;;;53.70;30.03;;;5.00;99.90;;;4.81;78.63;100370.16;5049954;28;20237;-67
2023/02/17 04:45:10;;;;;;;53.37;28.93;;;5.00;99.90;;;4.83;79.03;100368.50;5050912;28;20609;-64
2023/02/17 04:47:39;;;;;;;51.10;30.20;;;5.00;99.90;;;4.85;79.05;100378.72;5052265;28;20651;-64
2023/02/17 04:50:10;;;;;;;46.07;27.27;;;5.00;99.90;;;4.87;79.18;100368.53;5050987;28;20198;-64
2023/02/17 04:52:38;;;;;;;50.13;28.17;;;5.00;99.90;;;4.87;79.51;100369.41;5050868;28;20237;-62
2023/02/17 04:55:07;;;;;;;51.83;28.60;;;5.00;99.90;;;4.88;79.55;100366.00;5050982;28;20263;-65
2023/02/17 04:57:36;;;;;;;49.57;30.50;;;5.00;99.90;;;4.89;79.73;100364.31;5044882;28;20239;-64
2023/02/17 05:00:06;;;;;;;50.73;28.93;;;5.00;99.90;;;4.89;79.55;100356.66;5049522;28;20206;-66
2023/02/17 05:02:36;;;;;;;53.73;29.10;;;5.00;99.90;;;4.89;79.73;100356.66;5050020;28;20249;-65
2023/02/17 05:05:05;;;;;;;48.87;28.80;;;5.10;99.90;;;4.89;80.42;100347.28;5051704;28;20228;-66
2023/02/17 05:07:34;;;;;;;52.27;30.50;;;5.00;99.90;;;4.88;80.23;100343.03;5051094;28;20202;-64
2023/02/17 05:10:02;;;;;;;51.70;29.43;;;5.00;99.90;;;4.89;80.50;100341.34;5051551;28;20210;-64
2023/02/17 05:12:31;;;;;;;52.57;31.03;;;5.00;99.90;;;4.88;80.64;100344.72;5051539;28;20251;-64
2023/02/17 05:14:59;;;;;;;54.13;30.17;;;5.00;99.90;;;4.90;80.83;100348.16;5041856;28;20206;-65
2023/02/17 05:17:28;;;;;;;49.90;28.67;;;5.10;99.90;;;4.90;80.85;100348.16;5051637;28;20214;-62
2023/02/17 05:19:58;;;;;;;51.57;29.50;;;5.10;99.90;;;4.90;80.92;100348.16;5050158;28;20201;-63
2023/02/17 05:22:27;;;;;;;53.63;31.23;;;5.10;99.90;;;4.89;80.96;100337.06;5050764;28;20233;-64
2023/02/17 05:24:55;;;;;;;52.67;30.13;;;5.00;99.90;;;4.91;81.24;100343.09;5050139;28;20206;-65
2023/02/17 05:27:24;;;;;;;52.73;29.80;;;5.00;99.90;;;4.92;81.58;100339.69;5048960;28;20216;-64
2023/02/17 05:29:53;;;;;;;53.60;30.20;;;5.00;99.90;;;4.95;81.56;100331.22;5046281;28;20229;-65
2023/02/17 05:32:23;;;;;;;52.73;29.83;;;5.10;99.90;;;4.96;81.61;100338.03;5047325;28;20202;-64
2023/02/17 05:34:51;;;;;;;49.80;28.67;;;5.10;99.90;;;4.97;81.27;100337.19;5048207;28;20214;-63
2023/02/17 05:37:21;;;;;;;50.90;30.60;;;5.10;99.90;;;4.98;81.40;100331.28;5052186;28;20635;-65
2023/02/17 05:39:50;;;;;;;53.50;30.63;;;5.10;99.90;;;4.97;81.38;100332.97;5050808;28;20210;-67
2023/02/17 05:42:18;;;;;;;50.93;28.70;;;5.10;99.90;;;4.98;81.30;100337.25;5050781;28;20291;-65
2023/02/17 05:44:47;;;;;;;54.00;30.20;;;5.10;99.90;;;4.99;81.12;100333.84;5049365;28;20259;-65
2023/02/17 05:47:15;;;;;;;52.00;30.27;;;5.10;99.90;;;4.99;81.53;100340.66;5048534;28;20260;-65
2023/02/17 05:49:44;;;;;;;53.27;31.43;;;5.10;99.90;;;5.01;80.94;100326.22;5047714;28;20228;-65
2023/02/17 05:52:15;;;;;;;49.93;30.73;;;5.10;99.90;;;5.02;81.61;100322.81;5052119;28;20202;-64
2023/02/17 05:54:45;;;;;;;56.10;30.07;;;5.10;99.90;;;5.02;81.12;100326.25;5050003;28;20206;-63
2023/02/17 05:57:14;;;;;;;46.50;29.23;;;5.10;99.90;;;5.03;80.98;100320.28;5048219;28;20308;-65
2023/02/17 05:59:44;;;;;;;53.90;30.10;;;5.10;99.90;;;5.05;80.73;100322.88;5046645;28;20209;-65
2023/02/17 06:02:12;;;;;;;51.77;29.10;;;5.20;99.90;;;5.04;80.94;100321.13;5041501;28;20214;-63
2023/02/17 06:04:41;;;;;;;52.67;29.67;;;5.20;99.90;;;5.07;80.51;100321.19;5050189;28;20255;-65
2023/02/17 06:07:09;;;;;;;51.40;29.73;;;5.20;99.90;;;5.07;80.72;100305.88;5048936;28;20231;-65
2023/02/17 06:09:38;;;;;;;54.13;29.40;;;5.20;99.90;;;5.08;80.17;100318.69;5047774;28;20576;-66
2023/02/17 06:12:08;;;;;;;49.90;30.23;;;5.20;99.90;;;5.11;80.55;100322.09;5048220;28;20726;-64
2023/02/17 06:14:37;;;;;;;51.57;30.97;;;5.20;99.90;;;5.10;80.17;100318.69;5041992;28;20205;-63
2023/02/17 06:17:06;;;;;;;51.93;31.63;;;5.20;99.90;;;5.10;79.87;100326.34;5038926;28;20689;-64
2023/02/17 06:19:34;;;;;;;50.20;29.47;;;5.20;99.90;;;5.09;79.85;100322.09;5044502;28;20259;-65
2023/02/17 06:22:03;;;;;;;56.57;29.47;;;5.20;99.90;;;5.11;79.87;100328.06;5049434;28;20198;-65
2023/02/17 06:24:31;;;;;;;51.43;30.30;;;5.20;99.90;;;5.12;79.45;100324.69;5047675;28;20237;-66
2023/02/17 06:27:01;;;;;;;55.37;29.77;;;5.20;99.90;;;5.11;79.58;100320.41;5049096;28;20724;-67
2023/02/17 06:29:31;;;;;;;48.87;29.87;;;5.20;99.90;;;5.14;79.76;100323.00;5048363;28;20226;-62
2023/02/17 06:32:00;;;;;;;51.43;28.77;;;5.30;99.90;;;5.16;79.29;100331.56;5043544;28;20213;-63
2023/02/17 06:34:28;;;;;;;46.97;29.40;;;5.30;99.90;;;5.16;79.51;100321.34;5043502;28;20234;-65
2023/02/17 06:36:57;;;;;;;46.90;29.07;;;5.30;99.90;;;5.18;79.18;100322.22;5049880;28;20609;-65
2023/02/17 06:39:26;;;;;;;53.30;27.63;;;5.30;99.90;;;5.17;78.85;100315.38;5047724;28;20237;-63
2023/02/17 06:41:54;;;;;;;52.63;27.50;;;5.30;99.90;;;5.19;78.92;100315.41;5047193;28;20230;-65
2023/02/17 06:44:23;;;;;;;50.60;29.83;;;5.30;99.90;;;5.18;78.74;100312.00;5037678;28;20374;-66
2023/02/17 06:46:52;;;;;;;54.07;30.27;;;5.30;99.90;;;5.19;78.59;100311.19;5044117;28;20637;-65
2023/02/17 06:49:21;;;;;;;45.50;28.37;;;5.30;99.90;;;5.18;78.96;100298.38;5044417;28;20206;-63
2023/02/17 06:51:49;;;;;;;48.77;30.00;;;5.30;99.90;;;5.19;78.81;100290.75;5047194;28;20210;-66
2023/02/17 06:54:18;;;;;;;48.37;28.10;;;5.30;99.90;;;5.24;78.87;100298.47;5057740;28;20210;-69
2023/02/17 06:56:46;;;;;;;48.27;28.23;;;5.40;99.90;;;5.26;78.45;100296.78;5066047;28;20237;-69
2023/02/17 06:59:15;;;;;;;48.17;28.80;;;5.40;99.90;;;5.27;78.33;100304.47;5052254;28;20232;-67
2023/02/17 07:01:43;;;;;;;51.20;27.83;;;5.40;99.90;;;5.28;78.17;100292.56;5048737;28;20260;-69
2023/02/17 07:04:13;;;;;;;43.40;27.33;;;5.40;99.90;;;5.31;78.43;100297.72;5048562;28;20226;-69
2023/02/17 07:06:42;;;;;;;45.17;27.53;;;5.40;99.90;;;5.34;77.84;100284.97;5047853;28;20213;-69
2023/02/17 07:09:12;;;;;;;51.13;29.43;;;5.50;99.90;;;5.40;77.97;100289.31;5055578;28;20650;-72
2023/02/17 07:11:43;;;;;;;47.57;28.43;;;5.50;99.90;;;5.46;77.25;100294.50;5058417;28;20221;-69
2023/02/17 07:14:12;;;;;;;47.57;28.00;;;5.60;99.90;;;5.49;77.45;100289.44;5067860;28;20182;-70
2023/02/17 07:16:40;;;;;;;52.70;26.80;;;5.60;99.90;;;5.52;77.14;100294.56;5060410;28;20206;-70
2023/02/17 07:19:09;;;;;;;44.47;27.67;;;5.60;99.90;;;5.55;76.50;100289.50;5059147;28;20202;-69
2023/02/17 07:21:39;;;;;;;46.20;27.57;;;5.70;99.90;;;5.62;77.16;100288.72;5057520;28;20207;-68
2023/02/17 07:24:08;;;;;;;46.93;27.20;;;5.70;99.90;;;5.68;76.40;100288.81;5066452;28;20234;-68
2023/02/17 07:26:37;;;;;;;50.03;27.87;;;5.80;99.90;;;5.77;75.77;100280.38;5063891;28;20212;-67
2023/02/17 07:29:07;;;;;;;43.27;27.30;;;5.90;99.90;;;5.81;75.44;100285.56;5061581;28;20230;-67
2023/02/17 07:31:36;;;;;;;47.23;27.20;;;5.90;99.90;;;5.88;75.49;100285.63;5058714;28;20225;-69
2023/02/17 07:34:05;;;;;;;41.77;26.73;;;6.00;99.90;;;5.99;75.12;100286.63;5059180;28;20244;-68
2023/02/17 07:36:34;;;;;;;48.63;27.33;;;6.10;99.90;;;6.05;73.71;100286.72;5056137;28;20263;-67
2023/02/17 07:39:05;;;;;;;46.80;29.63;;;6.10;99.90;;;6.10;73.72;100285.06;5062320;28;20244;-67
2023/02/17 07:41:34;;;;;;;48.40;28.23;;;6.20;99.90;;;6.16;74.40;100290.25;5061990;28;20206;-68
2023/02/17 07:44:02;;;;;;;47.77;29.23;;;6.30;99.90;;;6.16;73.36;100285.13;5060909;28;20226;-68
2023/02/17 07:46:31;;;;;;;45.03;27.67;;;6.30;99.90;;;6.13;72.91;100279.97;5058925;28;20265;-68
2023/02/17 07:48:59;;;;;;;47.00;27.93;;;6.20;99.90;;;6.12;73.11;100278.25;5054018;28;20209;-69
2023/02/17 07:51:28;;;;;;;47.57;28.13;;;6.20;99.90;;;6.11;73.42;100285.91;5061986;28;20530;-67
2023/02/17 07:53:56;;;;;;;47.80;29.00;;;6.30;99.90;;;6.09;73.08;100282.50;5049349;28;20210;-67
2023/02/17 07:56:28;;;;;;;42.20;24.77;;;6.20;99.90;;;6.11;72.59;100291.03;5060645;28;20214;-68
2023/02/17 07:58:57;;;;;;;43.40;26.23;;;6.20;99.90;;;6.09;72.71;100277.38;5063056;28;20198;-66
2023/02/17 08:01:26;;;;;;;49.30;26.73;;;6.20;99.90;;;6.11;72.72;100278.22;5050620;28;20539;-70
2023/02/17 08:03:56;;;;;;;43.33;26.30;;;6.30;99.90;;;6.14;72.63;100275.72;5058531;28;20226;-66
2023/02/17 08:06:26;;;;;;;39.27;25.20;;;6.30;99.90;;;6.17;71.90;100276.59;5057458;28;20202;-70
2023/02/17 08:14:46;;;;;;;44.07;25.43;;;6.50;99.90;;;6.37;70.97;100268.25;5038650;28;20699;-71
2023/02/17 08:17:17;;;;;;;42.53;26.20;;;6.50;99.90;;;6.39;70.86;100271.69;5042290;28;20237;-67
2023/02/17 08:19:48;;;;;;;44.20;25.20;;;6.60;99.90;;;6.37;71.30;100271.69;5060496;28;20663;-70
2023/02/17 08:22:17;;;;;;;42.00;25.37;;;6.60;99.90;;;6.40;70.46;100270.84;5056781;28;20216;-71
2023/02/17 08:24:46;;;;;;;43.53;23.87;;;6.60;99.90;;;6.41;70.46;100270.88;5054222;28;20823;-69
2023/02/17 08:27:16;;;;;;;40.63;24.87;;;6.60;99.90;;;6.40;70.52;100269.13;5058419;28;20206;-67
2023/02/17 08:29:45;;;;;;;51.03;25.73;;;6.60;99.90;;;6.38;70.38;100267.44;5064439;28;20266;-69
2023/02/17 08:32:16;;;;;;;41.87;25.07;;;6.60;99.90;;;6.35;70.27;100265.69;5047185;28;20217;-67
2023/02/17 08:34:45;;;;;;;42.03;25.10;;;6.60;99.90;;;6.37;70.21;100260.56;5053392;28;20202;-69
2023/02/17 08:37:13;;;;;;;38.27;23.90;;;6.60;99.90;;;6.39;69.93;100258.91;5067476;28;20776;-68
2023/02/17 08:39:42;;;;;;;38.87;25.10;;;6.60;99.90;;;6.42;70.52;100251.25;5058992;28;20269;-71
2023/02/17 08:42:10;;;;;;;42.23;24.13;;;6.60;99.90;;;6.45;70.64;100247.00;5052618;28;20618;-70
2023/02/17 08:44:40;;;;;;;42.67;26.53;;;6.70;99.90;;;6.50;70.06;100250.47;5058097;28;20309;-71
2023/02/17 08:47:09;;;;;;;40.37;25.77;;;6.70;99.90;;;6.57;69.97;100241.13;5066161;28;20213;-69
2023/02/17 08:49:37;;;;;;;40.33;24.90;;;6.80;99.90;;;6.65;70.16;100244.59;5074724;28;20213;-68
2023/02/17 08:52:06;;;;;;;42.67;25.83;;;6.80;99.90;;;6.71;69.66;100248.91;5071768;28;20206;-67
2023/02/17 08:54:34;;;;;;;37.37;24.00;;;6.80;99.90;;;6.76;69.70;100242.13;5068210;28;20189;-71
2023/02/17 08:57:03;;;;;;;37.83;24.10;;;7.00;99.90;;;6.85;69.80;100241.31;5072733;28;20186;-70
2023/02/17 08:59:32;;;;;;;37.60;23.00;;;7.00;99.90;;;6.87;69.15;100231.94;5054343;28;20229;-70
2023/02/17 09:02:02;;;;;;;38.20;24.33;;;7.10;99.90;;;6.88;68.94;100234.50;5054535;28;20201;-71
2023/02/17 09:04:30;;;;;;;35.57;23.57;;;7.10;99.90;;;6.93;69.36;100244.81;5064677;28;20229;-71
2023/02/17 09:06:59;;;;;;;42.50;24.87;;;7.10;99.90;;;6.96;69.04;100244.84;5055943;28;20202;-70
2023/02/17 09:09:28;;;;;;;38.50;23.33;;;7.20;99.90;;;6.97;68.89;100237.16;5065225;28;20190;-68
2023/02/17 09:11:58;;;;;;;37.13;22.77;;;7.20;99.90;;;7.02;69.19;100240.56;5077556;28;20194;-69
2023/02/17 09:14:27;;;;;;;43.53;23.53;;;7.20;99.90;;;7.00;69.00;100241.44;5068574;28;20194;-69
2023/02/17 09:16:56;;;;;;;36.80;22.97;;;7.20;99.90;;;6.98;68.81;100243.13;5052590;28;20666;-67
2023/02/17 09:19:27;;;;;;;34.67;21.37;;;7.20;99.90;;;6.95;69.37;100243.09;5048359;28;20292;-68
2023/02/17 09:21:56;;;;;;;36.47;23.20;;;7.10;99.90;;;6.90;70.25;100237.09;5055718;28;20201;-72
2023/02/17 09:24:25;;;;;;;35.43;23.33;;;7.10;99.90;;;6.86;69.97;100238.78;5048028;28;20271;-68
2023/02/17 09:26:53;;;;;;;36.60;22.97;;;7.10;99.90;;;6.84;70.83;100230.22;5052199;28;20205;-70
2023/02/17 09:29:22;;;;;;;38.60;24.97;;;7.10;99.90;;;6.84;71.44;100230.22;5058217;28;20558;-69
2023/02/17 09:31:50;;;;;;;42.50;24.47;;;7.10;99.90;;;6.83;70.98;100228.50;5054343;28;20296;-68
2023/02/17 09:34:19;;;;;;;36.50;23.60;;;7.10;99.90;;;6.87;71.42;100224.25;5043252;28;20254;-68
2023/02/17 09:36:50;;;;;;;39.83;23.63;;;7.10;99.90;;;6.89;71.35;100222.59;5049584;28;20221;-68
2023/02/17 09:39:18;;;;;;;36.97;23.77;;;7.10;99.90;;;6.91;71.20;100226.00;5046875;28;20630;-72
2023/02/17 09:41:51;;;;;;;37.17;22.47;;;7.10;99.90;;;6.89;70.63;100217.47;5051833;28;20206;-72
2023/02/17 09:44:23;;;;;;;43.23;24.90;;;7.00;99.90;;;6.83;71.06;100209.72;5049375;28;20543;-70
2023/02/17 09:47:00;;;;;;;39.97;24.33;;;7.00;99.90;;;6.78;71.55;100213.13;5052031;28;20277;-71
2023/02/17 09:49:38;;;;;;;38.57;24.40;;;6.90;99.90;;;6.73;72.18;100199.41;5043255;28;20612;-71
2023/02/17 09:52:14;;;;;;;40.70;24.50;;;6.90;99.90;;;6.74;72.58;100200.31;5042257;28;20197;-72
2023/02/17 09:54:54;;;;;;;42.97;24.67;;;6.90;99.90;;;6.75;72.77;100189.19;5048838;28;20281;-69
2023/02/17 09:57:31;;;;;;;40.47;25.13;;;6.90;99.90;;;6.73;72.72;100189.16;5047442;28;20228;-69
2023/02/17 10:00:08;;;;;;;43.23;24.97;;;6.90;99.90;;;6.75;72.68;100184.06;5047372;28;20255;-68
2023/02/17 10:02:47;;;;;;;42.90;25.13;;;6.90;99.90;;;6.74;72.71;100182.38;5050045;28;20607;-72
2023/02/17 10:05:22;;;;;;;44.20;25.70;;;6.90;99.90;;;6.75;73.09;100184.94;5050835;28;20698;-69
2023/02/17 10:08:00;;;;;;;38.90;24.40;;;6.90;99.90;;;6.78;73.65;100179.84;5051743;28;20193;-72
2023/02/17 10:10:34;;;;;;;40.73;25.07;;;6.90;99.90;;;6.78;73.45;100179.84;5050858;28;20205;-68
2023/02/17 10:13:06;;;;;;;41.40;25.67;;;6.90;99.90;;;6.78;73.59;100181.53;5059880;28;20213;-67
2023/02/17 10:15:41;;;;;;;40.60;25.53;;;6.90;99.90;;;6.77;73.40;100183.25;5061094;28;20247;-71
2023/02/17 10:18:17;;;;;;;40.40;25.87;;;7.00;99.90;;;6.76;73.94;100178.94;5059825;28;20618;-71
2023/02/17 10:20:51;;;;;;;39.93;25.63;;;6.90;99.90;;;6.74;74.33;100178.09;5061436;28;20197;-71
2023/02/17 10:23:24;;;;;;;40.03;24.47;;;6.90;99.90;;;6.74;74.16;100185.78;5055906;28;20264;-74
2023/02/17 10:26:14;;;;;;;41.60;25.00;;;6.90;99.90;;;6.67;74.21;100178.91;5058207;28;20218;-69
2023/02/17 10:28:51;;;;;;;39.30;23.27;;;6.90;99.90;;;6.67;74.99;100171.22;5061111;28;20316;-71
2023/02/17 10:31:38;;;;;;;41.63;24.17;;;6.90;99.90;;;6.64;75.57;100171.19;5046168;28;20202;-72
2023/02/17 10:34:19;;;;;;;43.30;24.30;;;6.90;99.90;;;6.66;75.72;100166.94;5069184;28;20306;-70
2023/02/17 10:36:59;;;;;;;41.80;23.87;;;6.90;99.90;;;6.63;75.49;100159.25;5067269;28;20182;-71